sensor_id;sensor_type;location;lat;lon;timestamp;pressure;altitude;pressure_sealevel;temperature;humidity
10796;BME280;5450;42.994;23.372;2022-11-15T00:01:06;97019.69;;;7.84;100.00
10796;BME280;5450;42.994;23.372;2022-11-15T00:03:40;96951.81;;;7.43;100.00
10796;BME280;5450;42.994;23.372;2022-11-15T00:06:08;96992.59;;;7.55;100.00
10796;BME280;5450;42.994;23.372;2022-11-15T00:08:35;96935.06;;;7.15;100.00
10796;BME280;5450;42.994;23.372;2022-11-15T00:11:15;97013.25;;;7.58;100.00
10796;BME280;5450;42.994;23.372;2022-11-15T00:13:44;96963.03;;;7.24;100.00
10796;BME280;5450;42.994;23.372;2022-11-15T00:16:11;96924.44;;;7.07;100.00
10796;BME280;5450;42.994;23.372;2022-11-15T00:18:39;96949.28;;;7.22;100.00
10796;BME280;5450;42.994;23.372;2022-11-15T00:21:08;97017.84;;;7.65;100.00
10796;BME280;5450;42.994;23.372;2022-11-15T00:23:36;97017.38;;;7.60;100.00
10796;BME280;5450;42.994;23.372;2022-11-15T00:26:04;96961.28;;;7.34;100.00
10796;BME280;5450;42.994;23.372;2022-11-15T00:28:31;96924.69;;;7.04;100.00
10796;BME280;5450;42.994;23.372;2022-11-15T00:31:02;97026.81;;;7.42;100.00
10796;BME280;5450;42.994;23.372;2022-11-15T00:33:30;96904.66;;;6.54;100.00
10796;BME280;5450;42.994;23.372;2022-11-15T00:36:02;97034.16;;;7.48;100.00
10796;BME280;5450;42.994;23.372;2022-11-15T00:38:33;97017.22;;;7.52;100.00
10796;BME280;5450;42.994;23.372;2022-11-15T00:41:01;96990.09;;;7.44;100.00
10796;BME280;5450;42.994;23.372;2022-11-15T00:43:28;96844.84;;;6.51;100.00
10796;BME280;5450;42.994;23.372;2022-11-15T00:45:56;96943.59;;;6.87;100.00
10796;BME280;5450;42.994;23.372;2022-11-15T00:49:00;97005.38;;;7.18;100.00
10796;BME280;5450;42.994;23.372;2022-11-15T00:51:34;97003.34;;;7.01;100.00
10796;BME280;5450;42.994;23.372;2022-11-15T00:54:11;97003.34;;;7.01;100.00
10796;BME280;5450;42.994;23.372;2022-11-15T00:56:38;96987.41;;;7.04;100.00
10796;BME280;5450;42.994;23.372;2022-11-15T00:59:35;97002.06;;;7.16;100.00
10796;BME280;5450;42.994;23.372;2022-11-15T01:02:03;97000.69;;;7.22;100.00
10796;BME280;5450;42.994;23.372;2022-11-15T01:04:30;97003.63;;;7.28;100.00
10796;BME280;5450;42.994;23.372;2022-11-15T01:06:59;97014.47;;;7.24;100.00
10796;BME280;5450;42.994;23.372;2022-11-15T01:09:26;97016.13;;;7.25;100.00
10796;BME280;5450;42.994;23.372;2022-11-15T01:11:53;96895.25;;;6.72;100.00
10796;BME280;5450;42.994;23.372;2022-11-15T01:14:20;97019.47;;;7.36;100.00
10796;BME280;5450;42.994;23.372;2022-11-15T01:16:47;96862.25;;;6.41;100.00
10796;BME280;5450;42.994;23.372;2022-11-15T01:19:26;96973.47;;;6.94;100.00
10796;BME280;5450;42.994;23.372;2022-11-15T01:21:53;96850.25;;;6.18;100.00
10796;BME280;5450;42.994;23.372;2022-11-15T01:24:21;96807.88;;;6.04;100.00
10796;BME280;5450;42.994;23.372;2022-11-15T01:26:50;96902.47;;;6.59;100.00
10796;BME280;5450;42.994;23.372;2022-11-15T01:29:17;96994.63;;;7.21;100.00
10796;BME280;5450;42.994;23.372;2022-11-15T01:31:44;97006.25;;;7.28;100.00
10796;BME280;5450;42.994;23.372;2022-11-15T01:34:11;96987.69;;;7.31;100.00
10796;BME280;5450;42.994;23.372;2022-11-15T01:36:38;97006.53;;;7.25;100.00
10796;BME280;5450;42.994;23.372;2022-11-15T01:39:05;96961.03;;;7.07;100.00
10796;BME280;5450;42.994;23.372;2022-11-15T01:41:33;96945.19;;;6.99;100.00
10796;BME280;5450;42.994;23.372;2022-11-15T01:47:02;96980.16;;;7.08;100.00
10796;BME280;5450;42.994;23.372;2022-11-15T01:49:32;96979.25;;;7.18;100.00
10796;BME280;5450;42.994;23.372;2022-11-15T01:52:02;96991.53;;;7.27;100.00
10796;BME280;5450;42.994;23.372;2022-11-15T01:54:30;96948.88;;;6.97;100.00
10796;BME280;5450;42.994;23.372;2022-11-15T01:57:01;96943.97;;;7.13;100.00
10796;BME280;5450;42.994;23.372;2022-11-15T01:59:33;96974.00;;;7.48;100.00
10796;BME280;5450;42.994;23.372;2022-11-15T02:02:00;96949.97;;;7.24;100.00
10796;BME280;5450;42.994;23.372;2022-11-15T02:04:31;96972.44;;;7.36;100.00
10796;BME280;5450;42.994;23.372;2022-11-15T02:06:59;96942.66;;;7.18;100.00
10796;BME280;5450;42.994;23.372;2022-11-15T02:09:29;96952.50;;;7.05;100.00
10796;BME280;5450;42.994;23.372;2022-11-15T02:11:56;96986.09;;;7.19;100.00
10796;BME280;5450;42.994;23.372;2022-11-15T02:14:26;96982.94;;;7.16;100.00
10796;BME280;5450;42.994;23.372;2022-11-15T02:16:59;96992.38;;;7.07;100.00
10796;BME280;5450;42.994;23.372;2022-11-15T02:20:00;96981.75;;;6.78;100.00
10796;BME280;5450;42.994;23.372;2022-11-15T02:22:46;96810.59;;;5.82;100.00
10796;BME280;5450;42.994;23.372;2022-11-15T02:25:52;96977.13;;;6.82;100.00
10796;BME280;5450;42.994;23.372;2022-11-15T02:28:45;96954.00;;;6.77;100.00
10796;BME280;5450;42.994;23.372;2022-11-15T02:31:24;96944.69;;;6.64;100.00
10796;BME280;5450;42.994;23.372;2022-11-15T02:34:00;96950.22;;;6.50;100.00
10796;BME280;5450;42.994;23.372;2022-11-15T02:36:41;96974.63;;;6.28;100.00
10796;BME280;5450;42.994;23.372;2022-11-15T02:39:17;96961.06;;;6.13;100.00
10796;BME280;5450;42.994;23.372;2022-11-15T02:42:20;96975.19;;;6.43;100.00
10796;BME280;5450;42.994;23.372;2022-11-15T02:45:44;96982.56;;;6.38;100.00
10796;BME280;5450;42.994;23.372;2022-11-15T02:48:15;96951.38;;;5.93;100.00
10796;BME280;5450;42.994;23.372;2022-11-15T02:50:44;96927.00;;;5.72;100.00
10796;BME280;5450;42.994;23.372;2022-11-15T02:53:11;96978.00;;;6.19;100.00
10796;BME280;5450;42.994;23.372;2022-11-15T02:55:42;96972.41;;;6.24;100.00
10796;BME280;5450;42.994;23.372;2022-11-15T03:01:04;96883.59;;;5.39;100.00
10796;BME280;5450;42.994;23.372;2022-11-15T03:03:57;96896.28;;;5.33;100.00
10796;BME280;5450;42.994;23.372;2022-11-15T03:06:34;96871.94;;;4.79;100.00
10796;BME280;5450;42.994;23.372;2022-11-15T03:09:04;96969.22;;;5.44;100.00
10796;BME280;5450;42.994;23.372;2022-11-15T03:11:36;96976.34;;;5.53;100.00
10796;BME280;5450;42.994;23.372;2022-11-15T03:14:10;96832.63;;;4.48;100.00
10796;BME280;5450;42.994;23.372;2022-11-15T03:16:43;96984.63;;;5.69;100.00
10796;BME280;5450;42.994;23.372;2022-11-15T03:19:19;96941.41;;;5.45;100.00
10796;BME280;5450;42.994;23.372;2022-11-15T03:21:52;96959.00;;;5.85;100.00
10796;BME280;5450;42.994;23.372;2022-11-15T03:24:26;96854.88;;;5.19;100.00
10796;BME280;5450;42.994;23.372;2022-11-15T03:26:57;96965.75;;;5.77;100.00
10796;BME280;5450;42.994;23.372;2022-11-15T03:29:27;96925.63;;;5.57;100.00
10796;BME280;5450;42.994;23.372;2022-11-15T03:32:01;96966.22;;;5.93;100.00
10796;BME280;5450;42.994;23.372;2022-11-15T03:34:35;96825.19;;;4.99;100.00
10796;BME280;5450;42.994;23.372;2022-11-15T03:37:05;96937.00;;;5.67;100.00
10796;BME280;5450;42.994;23.372;2022-11-15T03:39:33;96966.19;;;6.04;100.00
10796;BME280;5450;42.994;23.372;2022-11-15T03:42:09;96915.97;;;5.80;100.00
10796;BME280;5450;42.994;23.372;2022-11-15T03:44:45;96917.97;;;5.76;100.00
10796;BME280;5450;42.994;23.372;2022-11-15T03:47:16;96892.00;;;5.54;100.00
10796;BME280;5450;42.994;23.372;2022-11-15T03:49:58;96933.59;;;5.98;100.00
10796;BME280;5450;42.994;23.372;2022-11-15T03:52:33;96855.56;;;5.32;100.00
10796;BME280;5450;42.994;23.372;2022-11-15T03:55:07;96818.44;;;4.97;100.00
10796;BME280;5450;42.994;23.372;2022-11-15T03:57:34;96945.75;;;5.55;100.00
10796;BME280;5450;42.994;23.372;2022-11-15T04:00:02;96898.66;;;5.36;100.00
10796;BME280;5450;42.994;23.372;2022-11-15T04:02:29;96966.13;;;5.61;100.00
10796;BME280;5450;42.994;23.372;2022-11-15T04:04:57;96849.88;;;5.16;100.00
10796;BME280;5450;42.994;23.372;2022-11-15T04:07:26;96815.13;;;4.95;100.00
10796;BME280;5450;42.994;23.372;2022-11-15T04:09:53;96921.44;;;5.77;100.00
10796;BME280;5450;42.994;23.372;2022-11-15T04:12:29;96925.47;;;5.70;100.00
10796;BME280;5450;42.994;23.372;2022-11-15T04:15:00;96892.25;;;5.40;100.00
10796;BME280;5450;42.994;23.372;2022-11-15T04:17:38;96914.25;;;5.58;100.00
10796;BME280;5450;42.994;23.372;2022-11-15T04:20:10;96888.47;;;5.22;100.00
10796;BME280;5450;42.994;23.372;2022-11-15T04:23:02;96899.63;;;5.24;100.00
10796;BME280;5450;42.994;23.372;2022-11-15T04:25:49;96923.28;;;5.54;100.00
10796;BME280;5450;42.994;23.372;2022-11-15T04:28:18;96893.22;;;5.28;100.00
10796;BME280;5450;42.994;23.372;2022-11-15T04:30:45;96910.19;;;5.65;100.00
10796;BME280;5450;42.994;23.372;2022-11-15T04:33:12;96828.84;;;5.08;100.00
10796;BME280;5450;42.994;23.372;2022-11-15T04:35:44;96902.50;;;5.64;100.00
10796;BME280;5450;42.994;23.372;2022-11-15T04:38:31;96794.06;;;4.98;100.00
10796;BME280;5450;42.994;23.372;2022-11-15T04:41:00;96908.53;;;5.64;100.00
10796;BME280;5450;42.994;23.372;2022-11-15T04:43:33;96821.72;;;5.10;100.00
10796;BME280;5450;42.994;23.372;2022-11-15T04:46:04;96844.16;;;5.33;100.00
10796;BME280;5450;42.994;23.372;2022-11-15T04:51:57;96921.56;;;5.75;100.00
10796;BME280;5450;42.994;23.372;2022-11-15T04:54:50;96906.09;;;5.52;100.00
10796;BME280;5450;42.994;23.372;2022-11-15T04:57:42;96909.03;;;5.58;100.00
10796;BME280;5450;42.994;23.372;2022-11-15T05:00:12;96867.75;;;5.20;100.00
10796;BME280;5450;42.994;23.372;2022-11-15T05:02:44;96908.09;;;5.48;100.00
10796;BME280;5450;42.994;23.372;2022-11-15T05:05:28;96894.84;;;5.40;100.00
10796;BME280;5450;42.994;23.372;2022-11-15T05:11:20;96906.78;;;5.54;100.00
10796;BME280;5450;42.994;23.372;2022-11-15T05:14:16;96911.41;;;5.50;100.00
10796;BME280;5450;42.994;23.372;2022-11-15T05:20:26;96874.53;;;5.12;100.00
10796;BME280;5450;42.994;23.372;2022-11-15T05:22:53;96891.56;;;5.05;100.00
10796;BME280;5450;42.994;23.372;2022-11-15T05:25:21;96913.81;;;5.20;100.00
10796;BME280;5450;42.994;23.372;2022-11-15T05:27:50;96908.88;;;5.17;100.00
10796;BME280;5450;42.994;23.372;2022-11-15T05:30:17;96906.84;;;4.98;100.00
10796;BME280;5450;42.994;23.372;2022-11-15T05:32:44;96845.03;;;4.34;100.00
10796;BME280;5450;42.994;23.372;2022-11-15T05:35:15;96818.91;;;4.13;100.00
10796;BME280;5450;42.994;23.372;2022-11-15T05:37:45;96868.38;;;4.57;100.00
10796;BME280;5450;42.994;23.372;2022-11-15T05:40:13;96899.41;;;4.83;100.00
10796;BME280;5450;42.994;23.372;2022-11-15T05:42:40;96901.88;;;4.84;100.00
10796;BME280;5450;42.994;23.372;2022-11-15T05:45:09;96907.06;;;4.73;100.00
10796;BME280;5450;42.994;23.372;2022-11-15T05:47:37;96899.63;;;4.80;100.00
10796;BME280;5450;42.994;23.372;2022-11-15T05:50:06;96923.53;;;4.85;100.00
10796;BME280;5450;42.994;23.372;2022-11-15T05:53:00;96909.56;;;4.75;100.00
10796;BME280;5450;42.994;23.372;2022-11-15T05:55:29;96912.13;;;4.63;100.00
10796;BME280;5450;42.994;23.372;2022-11-15T05:57:58;96916.91;;;4.70;100.00
10796;BME280;5450;42.994;23.372;2022-11-15T06:07:50;96906.00;;;4.65;100.00
10796;BME280;5450;42.994;23.372;2022-11-15T06:10:43;96917.56;;;4.49;100.00
10796;BME280;5450;42.994;23.372;2022-11-15T06:13:11;96936.50;;;4.51;100.00
10796;BME280;5450;42.994;23.372;2022-11-15T06:15:40;96926.94;;;4.52;100.00
10796;BME280;5450;42.994;23.372;2022-11-15T06:18:09;96888.00;;;4.39;100.00
10796;BME280;5450;42.994;23.372;2022-11-15T06:20:38;96914.88;;;4.62;100.00
10796;BME280;5450;42.994;23.372;2022-11-15T06:23:10;96916.06;;;4.58;100.00
10796;BME280;5450;42.994;23.372;2022-11-15T06:25:40;96922.81;;;4.60;100.00
10796;BME280;5450;42.994;23.372;2022-11-15T06:28:08;96855.34;;;4.24;100.00
10796;BME280;5450;42.994;23.372;2022-11-15T06:30:36;96886.56;;;4.46;100.00
10796;BME280;5450;42.994;23.372;2022-11-15T06:36:22;96908.13;;;4.59;100.00
10796;BME280;5450;42.994;23.372;2022-11-15T06:38:50;96913.31;;;4.59;100.00
10796;BME280;5450;42.994;23.372;2022-11-15T06:41:18;96895.69;;;4.52;100.00
10796;BME280;5450;42.994;23.372;2022-11-15T06:43:46;96908.72;;;4.52;100.00
10796;BME280;5450;42.994;23.372;2022-11-15T06:46:16;96910.97;;;4.56;100.00
10796;BME280;5450;42.994;23.372;2022-11-15T06:48:43;96902.91;;;4.59;100.00
10796;BME280;5450;42.994;23.372;2022-11-15T06:51:10;96832.47;;;4.06;100.00
10796;BME280;5450;42.994;23.372;2022-11-15T06:57:21;96895.44;;;4.55;100.00
10796;BME280;5450;42.994;23.372;2022-11-15T06:59:49;96836.84;;;4.16;100.00
10796;BME280;5450;42.994;23.372;2022-11-15T07:02:40;96897.72;;;4.59;100.00
10796;BME280;5450;42.994;23.372;2022-11-15T07:05:12;96892.59;;;4.47;100.00
10796;BME280;5450;42.994;23.372;2022-11-15T07:07:41;96898.88;;;4.55;100.00
10796;BME280;5450;42.994;23.372;2022-11-15T07:10:08;96897.00;;;4.57;100.00
10796;BME280;5450;42.994;23.372;2022-11-15T07:12:46;96851.56;;;4.50;100.00
10796;BME280;5450;42.994;23.372;2022-11-15T07:15:14;96795.94;;;4.07;100.00
10796;BME280;5450;42.994;23.372;2022-11-15T07:17:41;96889.88;;;4.48;100.00
10796;BME280;5450;42.994;23.372;2022-11-15T07:20:10;96876.63;;;4.40;100.00
10796;BME280;5450;42.994;23.372;2022-11-15T07:22:40;96871.56;;;4.50;100.00
10796;BME280;5450;42.994;23.372;2022-11-15T07:25:08;96885.41;;;4.61;100.00
10796;BME280;5450;42.994;23.372;2022-11-15T07:27:35;96858.41;;;4.40;100.00
10796;BME280;5450;42.994;23.372;2022-11-15T07:30:05;96877.03;;;4.69;100.00
10796;BME280;5450;42.994;23.372;2022-11-15T07:32:34;96853.47;;;4.59;100.00
10796;BME280;5450;42.994;23.372;2022-11-15T07:35:02;96911.34;;;4.74;100.00
10796;BME280;5450;42.994;23.372;2022-11-15T07:37:29;96824.13;;;4.24;100.00
10796;BME280;5450;42.994;23.372;2022-11-15T07:39:56;96883.78;;;4.72;100.00
10796;BME280;5450;42.994;23.372;2022-11-15T07:42:25;96870.16;;;4.79;100.00
10796;BME280;5450;42.994;23.372;2022-11-15T07:45:14;96873.59;;;4.80;100.00
10796;BME280;5450;42.994;23.372;2022-11-15T07:47:45;96758.25;;;4.02;100.00
10796;BME280;5450;42.994;23.372;2022-11-15T07:50:12;96875.63;;;4.87;100.00
10796;BME280;5450;42.994;23.372;2022-11-15T07:52:39;96819.19;;;4.66;100.00
10796;BME280;5450;42.994;23.372;2022-11-15T07:55:08;96848.50;;;5.01;100.00
10796;BME280;5450;42.994;23.372;2022-11-15T07:57:46;96817.25;;;4.90;100.00
10796;BME280;5450;42.994;23.372;2022-11-15T08:01:20;96791.34;;;4.77;100.00
10796;BME280;5450;42.994;23.372;2022-11-15T08:07:13;96865.84;;;5.33;100.00
10796;BME280;5450;42.994;23.372;2022-11-15T08:09:59;96865.47;;;5.38;100.00
10796;BME280;5450;42.994;23.372;2022-11-15T08:13:11;96842.13;;;5.48;100.00
10796;BME280;5450;42.994;23.372;2022-11-15T08:15:44;96671.47;;;4.36;100.00
10796;BME280;5450;42.994;23.372;2022-11-15T08:18:15;96749.91;;;4.96;100.00
10796;BME280;5450;42.994;23.372;2022-11-15T08:20:43;96760.88;;;5.11;100.00
10796;BME280;5450;42.994;23.372;2022-11-15T08:23:17;96721.88;;;4.89;100.00
10796;BME280;5450;42.994;23.372;2022-11-15T08:26:02;96826.53;;;5.68;100.00
10796;BME280;5450;42.994;23.372;2022-11-15T08:28:36;96828.19;;;5.69;100.00
10796;BME280;5450;42.994;23.372;2022-11-15T08:31:22;96856.09;;;5.89;100.00
10796;BME280;5450;42.994;23.372;2022-11-15T08:33:54;96815.59;;;6.06;100.00
10796;BME280;5450;42.994;23.372;2022-11-15T08:36:35;96804.38;;;6.15;100.00
10796;BME280;5450;42.994;23.372;2022-11-15T08:39:16;96834.38;;;6.21;100.00
10796;BME280;5450;42.994;23.372;2022-11-15T08:42:01;96803.69;;;6.34;100.00
10796;BME280;5450;42.994;23.372;2022-11-15T08:44:41;96799.31;;;6.44;100.00
10796;BME280;5450;42.994;23.372;2022-11-15T08:47:35;96808.66;;;6.67;100.00
10796;BME280;5450;42.994;23.372;2022-11-15T08:50:14;96808.84;;;6.84;100.00
10796;BME280;5450;42.994;23.372;2022-11-15T08:52:44;96592.34;;;5.73;100.00
10796;BME280;5450;42.994;23.372;2022-11-15T08:55:17;96579.13;;;5.86;100.00
10796;BME280;5450;42.994;23.372;2022-11-15T08:57:54;96779.66;;;7.19;100.00
10796;BME280;5450;42.994;23.372;2022-11-15T09:01:23;96768.13;;;7.31;100.00
10796;BME280;5450;42.994;23.372;2022-11-15T09:04:08;96687.34;;;7.00;100.00
10796;BME280;5450;42.994;23.372;2022-11-15T09:07:08;96796.78;;;7.61;100.00
10796;BME280;5450;42.994;23.372;2022-11-15T09:10:12;96694.66;;;7.44;100.00
10796;BME280;5450;42.994;23.372;2022-11-15T09:12:42;96759.44;;;7.98;100.00
10796;BME280;5450;42.994;23.372;2022-11-15T09:18:15;96653.22;;;7.68;100.00
10796;BME280;5450;42.994;23.372;2022-11-15T09:24:03;96730.41;;;8.74;100.00
10796;BME280;5450;42.994;23.372;2022-11-15T09:27:22;96717.44;;;9.00;100.00
10796;BME280;5450;42.994;23.372;2022-11-15T09:30:31;96713.72;;;9.20;100.00
10796;BME280;5450;42.994;23.372;2022-11-15T09:40:06;96715.69;;;9.79;100.00
10796;BME280;5450;42.994;23.372;2022-11-15T09:42:58;96711.72;;;9.92;100.00
10796;BME280;5450;42.994;23.372;2022-11-15T09:48:54;96648.06;;;10.16;100.00
10796;BME280;5450;42.994;23.372;2022-11-15T09:51:45;96601.31;;;10.20;100.00
10796;BME280;5450;42.994;23.372;2022-11-15T09:54:38;96586.03;;;10.15;100.00
10796;BME280;5450;42.994;23.372;2022-11-15T10:00:22;96656.28;;;11.13;100.00
10796;BME280;5450;42.994;23.372;2022-11-15T10:03:23;96652.69;;;11.30;100.00
10796;BME280;5450;42.994;23.372;2022-11-15T10:06:38;96635.94;;;11.39;100.00
10796;BME280;5450;42.994;23.372;2022-11-15T10:09:23;96584.31;;;11.30;100.00
10796;BME280;5450;42.994;23.372;2022-11-15T10:12:29;96612.75;;;11.67;100.00
10796;BME280;5450;42.994;23.372;2022-11-15T10:28:51;96638.88;;;12.47;98.82
10796;BME280;5450;42.994;23.372;2022-11-15T10:48:46;96414.94;;;12.16;94.09
10796;BME280;5450;42.994;23.372;2022-11-15T10:55:29;96548.50;;;13.37;92.65
10796;BME280;5450;42.994;23.372;2022-11-15T11:18:47;96517.50;;;13.68;89.11
10796;BME280;5450;42.994;23.372;2022-11-15T11:22:04;96528.44;;;13.65;90.24
10796;BME280;5450;42.994;23.372;2022-11-15T11:32:45;96487.72;;;13.75;89.00
10796;BME280;5450;42.994;23.372;2022-11-15T11:42:26;96440.81;;;13.47;89.43
10796;BME280;5450;42.994;23.372;2022-11-15T11:48:23;96391.78;;;13.09;89.01
10796;BME280;5450;42.994;23.372;2022-11-15T12:01:11;96461.16;;;13.61;90.14
10796;BME280;5450;42.994;23.372;2022-11-15T12:10:28;96265.03;;;12.59;89.79
10796;BME280;5450;42.994;23.372;2022-11-15T12:16:32;96330.97;;;12.88;89.76
10796;BME280;5450;42.994;23.372;2022-11-15T12:37:54;96324.06;;;12.87;91.10
10796;BME280;5450;42.994;23.372;2022-11-15T13:02:15;96363.00;;;13.43;90.54
10796;BME280;5450;42.994;23.372;2022-11-15T13:04:51;96342.81;;;13.21;90.69
10796;BME280;5450;42.994;23.372;2022-11-15T13:15:07;96267.41;;;12.83;89.96
10796;BME280;5450;42.994;23.372;2022-11-15T13:29:23;96358.19;;;13.32;91.04
10796;BME280;5450;42.994;23.372;2022-11-15T13:31:50;96283.75;;;12.93;90.90
10796;BME280;5450;42.994;23.372;2022-11-15T13:34:43;96377.22;;;13.42;90.73
10796;BME280;5450;42.994;23.372;2022-11-15T13:38:11;96225.13;;;12.47;90.67
10796;BME280;5450;42.994;23.372;2022-11-15T13:40:46;96304.38;;;13.12;90.38
10796;BME280;5450;42.994;23.372;2022-11-15T13:43:23;96249.13;;;12.67;90.51
10796;BME280;5450;42.994;23.372;2022-11-15T13:46:23;96361.91;;;13.23;91.62
10796;BME280;5450;42.994;23.372;2022-11-15T13:52:33;96353.19;;;13.08;91.47
10796;BME280;5450;42.994;23.372;2022-11-15T14:02:30;96351.88;;;13.04;92.20
10796;BME280;5450;42.994;23.372;2022-11-15T14:26:39;96355.22;;;11.86;100.00
10796;BME280;5450;42.994;23.372;2022-11-15T14:29:22;96378.50;;;11.59;100.00
10796;BME280;5450;42.994;23.372;2022-11-15T14:31:50;96228.50;;;10.66;100.00
10796;BME280;5450;42.994;23.372;2022-11-15T14:37:38;96426.81;;;11.82;100.00
10796;BME280;5450;42.994;23.372;2022-11-15T14:40:12;96341.94;;;11.33;100.00
10796;BME280;5450;42.994;23.372;2022-11-15T14:46:22;96415.88;;;11.46;100.00
10796;BME280;5450;42.994;23.372;2022-11-15T14:48:50;96376.50;;;11.22;100.00
10796;BME280;5450;42.994;23.372;2022-11-15T14:54:36;96380.97;;;11.21;100.00
10796;BME280;5450;42.994;23.372;2022-11-15T15:00:23;96373.66;;;10.77;100.00
10796;BME280;5450;42.994;23.372;2022-11-15T15:06:35;96318.22;;;10.39;100.00
10796;BME280;5450;42.994;23.372;2022-11-15T15:09:06;96405.03;;;10.78;100.00
10796;BME280;5450;42.994;23.372;2022-11-15T15:11:37;96340.72;;;10.26;100.00
10796;BME280;5450;42.994;23.372;2022-11-15T15:14:04;96414.22;;;10.66;100.00
10796;BME280;5450;42.994;23.372;2022-11-15T15:16:33;96292.94;;;10.06;100.00
10796;BME280;5450;42.994;23.372;2022-11-15T15:19:04;96291.44;;;9.79;100.00
10796;BME280;5450;42.994;23.372;2022-11-15T15:21:32;96311.63;;;10.03;100.00
10796;BME280;5450;42.994;23.372;2022-11-15T15:24:02;96362.38;;;10.20;100.00
10796;BME280;5450;42.994;23.372;2022-11-15T15:26:31;96396.69;;;10.34;100.00
10796;BME280;5450;42.994;23.372;2022-11-15T15:29:02;96381.59;;;10.28;100.00
10796;BME280;5450;42.994;23.372;2022-11-15T15:31:30;96391.75;;;10.23;100.00
10796;BME280;5450;42.994;23.372;2022-11-15T15:34:23;96397.88;;;9.90;100.00
10796;BME280;5450;42.994;23.372;2022-11-15T15:37:07;96406.78;;;10.05;100.00
10796;BME280;5450;42.994;23.372;2022-11-15T15:39:36;96387.25;;;10.00;100.00
10796;BME280;5450;42.994;23.372;2022-11-15T15:42:31;96404.53;;;10.18;100.00
10796;BME280;5450;42.994;23.372;2022-11-15T15:48:46;96417.53;;;9.70;100.00
10796;BME280;5450;42.994;23.372;2022-11-15T15:51:14;96390.84;;;9.41;100.00
10796;BME280;5450;42.994;23.372;2022-11-15T15:57:24;96392.44;;;9.26;100.00
10796;BME280;5450;42.994;23.372;2022-11-15T15:59:53;96405.56;;;9.34;100.00
10796;BME280;5450;42.994;23.372;2022-11-15T16:02:20;96375.28;;;9.05;100.00
10796;BME280;5450;42.994;23.372;2022-11-15T16:05:12;96416.81;;;9.52;100.00
10796;BME280;5450;42.994;23.372;2022-11-15T16:07:43;96350.34;;;8.93;100.00
10796;BME280;5450;42.994;23.372;2022-11-15T16:10:21;96305.09;;;8.83;100.00
10796;BME280;5450;42.994;23.372;2022-11-15T16:13:17;96410.22;;;9.48;100.00
10796;BME280;5450;42.994;23.372;2022-11-15T16:15:47;96412.28;;;9.28;100.00
10796;BME280;5450;42.994;23.372;2022-11-15T16:18:17;96426.53;;;9.59;100.00
10796;BME280;5450;42.994;23.372;2022-11-15T16:20:46;96337.91;;;8.95;100.00
10796;BME280;5450;42.994;23.372;2022-11-15T16:28:11;96418.16;;;9.64;100.00
10796;BME280;5450;42.994;23.372;2022-11-15T16:31:19;96413.69;;;9.23;100.00
10796;BME280;5450;42.994;23.372;2022-11-15T16:33:47;96409.88;;;9.09;100.00
10796;BME280;5450;42.994;23.372;2022-11-15T16:46:57;96416.28;;;8.63;100.00
10796;BME280;5450;42.994;23.372;2022-11-15T16:49:24;96409.34;;;8.54;100.00
10796;BME280;5450;42.994;23.372;2022-11-15T16:55:33;96367.28;;;8.56;100.00
10796;BME280;5450;42.994;23.372;2022-11-15T17:01:45;96428.81;;;8.77;100.00
10796;BME280;5450;42.994;23.372;2022-11-15T17:07:51;96396.06;;;8.73;100.00
10796;BME280;5450;42.994;23.372;2022-11-15T17:10:46;96298.44;;;7.77;100.00
10796;BME280;5450;42.994;23.372;2022-11-15T17:20:30;96385.06;;;8.09;100.00
10796;BME280;5450;42.994;23.372;2022-11-15T17:26:43;96398.06;;;8.01;100.00
10796;BME280;5450;42.994;23.372;2022-11-15T17:58:24;96350.97;;;7.65;100.00
10796;BME280;5450;42.994;23.372;2022-11-15T18:00:52;96348.84;;;7.69;100.00
10796;BME280;5450;42.994;23.372;2022-11-15T18:03:46;96352.25;;;7.79;100.00
10796;BME280;5450;42.994;23.372;2022-11-15T18:06:43;96355.97;;;7.77;100.00
10796;BME280;5450;42.994;23.372;2022-11-15T18:09:18;96347.06;;;7.70;100.00
10796;BME280;5450;42.994;23.372;2022-11-15T18:18:59;96351.13;;;7.37;100.00
10796;BME280;5450;42.994;23.372;2022-11-15T18:22:10;96251.28;;;6.71;100.00
10796;BME280;5450;42.994;23.372;2022-11-15T18:24:51;96192.16;;;6.16;100.00
10796;BME280;5450;42.994;23.372;2022-11-15T18:27:49;96168.59;;;6.07;100.00
10796;BME280;5450;42.994;23.372;2022-11-15T18:30:42;96179.28;;;6.04;100.00
10796;BME280;5450;42.994;23.372;2022-11-15T18:33:25;96342.72;;;7.16;100.00
10796;BME280;5450;42.994;23.372;2022-11-15T18:36:10;96344.63;;;7.23;100.00
10796;BME280;5450;42.994;23.372;2022-11-15T18:38:43;96272.94;;;6.54;100.00
10796;BME280;5450;42.994;23.372;2022-11-15T18:41:28;96350.84;;;7.13;100.00
10796;BME280;5450;42.994;23.372;2022-11-15T18:44:33;96263.34;;;6.45;100.00
10796;BME280;5450;42.994;23.372;2022-11-15T18:47:33;96261.91;;;6.60;100.00
10796;BME280;5450;42.994;23.372;2022-11-15T18:50:18;96331.69;;;6.95;100.00
10796;BME280;5450;42.994;23.372;2022-11-15T18:52:47;96258.63;;;6.58;100.00
10796;BME280;5450;42.994;23.372;2022-11-15T18:55:20;96326.09;;;6.80;100.00
10796;BME280;5450;42.994;23.372;2022-11-15T18:57:50;96257.63;;;6.32;100.00
10796;BME280;5450;42.994;23.372;2022-11-15T19:00:20;96322.44;;;7.00;100.00
10796;BME280;5450;42.994;23.372;2022-11-15T19:02:52;96194.69;;;5.98;100.00
10796;BME280;5450;42.994;23.372;2022-11-15T19:05:22;96311.00;;;6.83;100.00
10796;BME280;5450;42.994;23.372;2022-11-15T19:11:38;96319.16;;;6.98;100.00
10796;BME280;5450;42.994;23.372;2022-11-15T19:14:09;96308.53;;;6.82;100.00
10796;BME280;5450;42.994;23.372;2022-11-15T19:17:02;96325.81;;;6.93;100.00
10796;BME280;5450;42.994;23.372;2022-11-15T19:19:30;96309.66;;;6.70;100.00
10796;BME280;5450;42.994;23.372;2022-11-15T19:21:59;96322.56;;;6.71;100.00
10796;BME280;5450;42.994;23.372;2022-11-15T19:24:28;96215.69;;;5.96;100.00
10796;BME280;5450;42.994;23.372;2022-11-15T19:26:58;96327.84;;;6.52;100.00
10796;BME280;5450;42.994;23.372;2022-11-15T19:33:07;96321.00;;;6.51;100.00